sensor_id;sensor_type;location;lat;lon;timestamp;pressure;altitude;pressure_sealevel;temperature;humidity
40940;BME280;26666;50.156;7.700;2022-12-29T00:01:18;99683.22;;;10.11;100.00
40940;BME280;26666;50.156;7.700;2022-12-29T00:06:20;99669.44;;;10.17;100.00
40940;BME280;26666;50.156;7.700;2022-12-29T00:11:26;99655.31;;;10.09;100.00
40940;BME280;26666;50.156;7.700;2022-12-29T00:16:28;99658.63;;;10.11;100.00
40940;BME280;26666;50.156;7.700;2022-12-29T00:21:30;99653.81;;;10.06;100.00
40940;BME280;26666;50.156;7.700;2022-12-29T00:26:32;99653.53;;;9.99;100.00
40940;BME280;26666;50.156;7.700;2022-12-29T00:31:33;99643.38;;;10.04;100.00
40940;BME280;26666;50.156;7.700;2022-12-29T00:36:38;99636.59;;;9.92;100.00
40940;BME280;26666;50.156;7.700;2022-12-29T00:41:40;99621.59;;;10.02;100.00
40940;BME280;26666;50.156;7.700;2022-12-29T00:46:43;99628.53;;;9.94;100.00
40940;BME280;26666;50.156;7.700;2022-12-29T00:51:44;99610.63;;;9.97;100.00
40940;BME280;26666;50.156;7.700;2022-12-29T00:56:50;99604.63;;;10.05;100.00
40940;BME280;26666;50.156;7.700;2022-12-29T01:01:53;99601.56;;;10.00;100.00
40940;BME280;26666;50.156;7.700;2022-12-29T01:06:55;99581.63;;;9.87;100.00
40940;BME280;26666;50.156;7.700;2022-12-29T01:11:57;99588.19;;;9.83;100.00
40940;BME280;26666;50.156;7.700;2022-12-29T01:16:59;99586.19;;;9.95;100.00
40940;BME280;26666;50.156;7.700;2022-12-29T01:22:00;99594.09;;;9.95;100.00
40940;BME280;26666;50.156;7.700;2022-12-29T01:27:02;99584.31;;;9.78;100.00
40940;BME280;26666;50.156;7.700;2022-12-29T01:32:04;99590.06;;;10.01;100.00
40940;BME280;26666;50.156;7.700;2022-12-29T01:37:05;99589.31;;;10.09;100.00
40940;BME280;26666;50.156;7.700;2022-12-29T01:42:14;99597.03;;;9.92;100.00
40940;BME280;26666;50.156;7.700;2022-12-29T01:47:28;99569.91;;;10.00;100.00
40940;BME280;26666;50.156;7.700;2022-12-29T01:52:32;99573.09;;;10.03;100.00
40940;BME280;26666;50.156;7.700;2022-12-29T01:57:38;99562.09;;;10.08;100.00
40940;BME280;26666;50.156;7.700;2022-12-29T02:02:47;99558.41;;;10.19;100.00
40940;BME280;26666;50.156;7.700;2022-12-29T02:07:51;99548.78;;;10.00;100.00
40940;BME280;26666;50.156;7.700;2022-12-29T02:12:53;99553.56;;;9.96;100.00
40940;BME280;26666;50.156;7.700;2022-12-29T02:18:22;99545.53;;;10.16;100.00
40940;BME280;26666;50.156;7.700;2022-12-29T02:39:15;99525.31;;;10.24;100.00
40940;BME280;26666;50.156;7.700;2022-12-29T02:49:57;99519.34;;;10.22;100.00
40940;BME280;26666;50.156;7.700;2022-12-29T02:55:02;99514.28;;;10.11;100.00
40940;BME280;26666;50.156;7.700;2022-12-29T03:10:59;99487.53;;;10.06;100.00
40940;BME280;26666;50.156;7.700;2022-12-29T03:16:09;99487.53;;;10.06;100.00
40940;BME280;26666;50.156;7.700;2022-12-29T03:21:32;99485.16;;;10.21;100.00
40940;BME280;26666;50.156;7.700;2022-12-29T03:26:36;99480.88;;;10.20;100.00
40940;BME280;26666;50.156;7.700;2022-12-29T03:31:38;99469.66;;;10.18;100.00
40940;BME280;26666;50.156;7.700;2022-12-29T03:36:47;99461.66;;;10.27;100.00
40940;BME280;26666;50.156;7.700;2022-12-29T03:41:55;99446.34;;;10.31;100.00
40940;BME280;26666;50.156;7.700;2022-12-29T03:46:59;99454.16;;;10.23;100.00
40940;BME280;26666;50.156;7.700;2022-12-29T03:52:00;99449.28;;;10.28;100.00
40940;BME280;26666;50.156;7.700;2022-12-29T03:57:02;99445.97;;;10.26;100.00
40940;BME280;26666;50.156;7.700;2022-12-29T04:02:04;99459.16;;;10.26;100.00
40940;BME280;26666;50.156;7.700;2022-12-29T04:07:05;99462.09;;;10.23;100.00
40940;BME280;26666;50.156;7.700;2022-12-29T04:12:07;99451.47;;;10.33;100.00
40940;BME280;26666;50.156;7.700;2022-12-29T04:17:09;99460.94;;;10.35;100.00
40940;BME280;26666;50.156;7.700;2022-12-29T04:22:11;99461.91;;;10.34;100.00
40940;BME280;26666;50.156;7.700;2022-12-29T04:27:12;99438.59;;;10.48;100.00
40940;BME280;26666;50.156;7.700;2022-12-29T04:32:14;99448.69;;;10.34;100.00
40940;BME280;26666;50.156;7.700;2022-12-29T04:37:16;99459.41;;;10.51;100.00
40940;BME280;26666;50.156;7.700;2022-12-29T04:42:18;99441.84;;;10.41;100.00
40940;BME280;26666;50.156;7.700;2022-12-29T04:47:20;99442.19;;;10.46;100.00
40940;BME280;26666;50.156;7.700;2022-12-29T04:52:21;99443.00;;;10.29;100.00
40940;BME280;26666;50.156;7.700;2022-12-29T04:57:23;99453.59;;;10.47;100.00
40940;BME280;26666;50.156;7.700;2022-12-29T05:02:24;99468.25;;;10.41;100.00
40940;BME280;26666;50.156;7.700;2022-12-29T05:07:26;99456.06;;;10.49;100.00
40940;BME280;26666;50.156;7.700;2022-12-29T05:12:31;99465.91;;;10.38;100.00
40940;BME280;26666;50.156;7.700;2022-12-29T05:17:33;99469.97;;;10.51;100.00
40940;BME280;26666;50.156;7.700;2022-12-29T05:22:34;99463.78;;;10.42;100.00
40940;BME280;26666;50.156;7.700;2022-12-29T05:27:36;99458.59;;;10.32;100.00
40940;BME280;26666;50.156;7.700;2022-12-29T05:32:38;99454.66;;;10.36;100.00
40940;BME280;26666;50.156;7.700;2022-12-29T05:37:39;99456.25;;;10.47;100.00
40940;BME280;26666;50.156;7.700;2022-12-29T05:42:41;99454.63;;;10.54;100.00
40940;BME280;26666;50.156;7.700;2022-12-29T05:47:42;99468.59;;;10.46;100.00
40940;BME280;26666;50.156;7.700;2022-12-29T05:52:44;99471.25;;;10.46;100.00
40940;BME280;26666;50.156;7.700;2022-12-29T05:57:45;99481.28;;;10.61;100.00
40940;BME280;26666;50.156;7.700;2022-12-29T06:02:47;99462.56;;;10.54;100.00
40940;BME280;26666;50.156;7.700;2022-12-29T06:07:49;99456.84;;;10.59;100.00
40940;BME280;26666;50.156;7.700;2022-12-29T06:12:50;99450.34;;;10.53;100.00
40940;BME280;26666;50.156;7.700;2022-12-29T06:17:51;99453.44;;;10.49;100.00
40940;BME280;26666;50.156;7.700;2022-12-29T06:22:53;99454.81;;;10.53;100.00
40940;BME280;26666;50.156;7.700;2022-12-29T06:27:54;99456.91;;;10.49;100.00
40940;BME280;26666;50.156;7.700;2022-12-29T06:32:56;99455.47;;;10.37;100.00
40940;BME280;26666;50.156;7.700;2022-12-29T06:37:58;99461.00;;;10.43;100.00
40940;BME280;26666;50.156;7.700;2022-12-29T06:43:00;99449.09;;;10.39;100.00
40940;BME280;26666;50.156;7.700;2022-12-29T06:48:01;99459.72;;;10.48;100.00
40940;BME280;26666;50.156;7.700;2022-12-29T06:53:06;99458.63;;;10.22;100.00
40940;BME280;26666;50.156;7.700;2022-12-29T06:58:07;99456.75;;;10.33;100.00
40940;BME280;26666;50.156;7.700;2022-12-29T07:03:09;99450.09;;;10.29;100.00
40940;BME280;26666;50.156;7.700;2022-12-29T07:08:10;99454.91;;;10.43;100.00
40940;BME280;26666;50.156;7.700;2022-12-29T07:13:12;99457.44;;;10.35;100.00
40940;BME280;26666;50.156;7.700;2022-12-29T07:18:13;99459.84;;;10.28;100.00
40940;BME280;26666;50.156;7.700;2022-12-29T07:23:15;99455.34;;;10.38;100.00
40940;BME280;26666;50.156;7.700;2022-12-29T07:28:16;99459.84;;;10.28;100.00
40940;BME280;26666;50.156;7.700;2022-12-29T07:33:18;99471.19;;;10.38;100.00
40940;BME280;26666;50.156;7.700;2022-12-29T07:38:19;99476.47;;;10.38;100.00
40940;BME280;26666;50.156;7.700;2022-12-29T07:43:21;99471.56;;;10.43;100.00
40940;BME280;26666;50.156;7.700;2022-12-29T07:48:22;99488.63;;;10.49;100.00
40940;BME280;26666;50.156;7.700;2022-12-29T07:53:24;99481.88;;;10.37;100.00
40940;BME280;26666;50.156;7.700;2022-12-29T07:58:26;99509.50;;;10.42;100.00
40940;BME280;26666;50.156;7.700;2022-12-29T08:03:28;99509.97;;;10.56;100.00
40940;BME280;26666;50.156;7.700;2022-12-29T08:08:29;99544.75;;;10.51;100.00
40940;BME280;26666;50.156;7.700;2022-12-29T08:13:31;99544.06;;;10.49;100.00
40940;BME280;26666;50.156;7.700;2022-12-29T08:18:32;99548.06;;;10.53;100.00
40940;BME280;26666;50.156;7.700;2022-12-29T08:23:34;99562.44;;;10.51;100.00
40940;BME280;26666;50.156;7.700;2022-12-29T08:28:36;99561.97;;;10.37;100.00
40940;BME280;26666;50.156;7.700;2022-12-29T08:33:37;99552.97;;;10.30;100.00
40940;BME280;26666;50.156;7.700;2022-12-29T08:38:39;99562.13;;;10.26;100.00
40940;BME280;26666;50.156;7.700;2022-12-29T08:43:40;99556.59;;;10.19;100.00
40940;BME280;26666;50.156;7.700;2022-12-29T08:48:42;99572.28;;;10.21;100.00
40940;BME280;26666;50.156;7.700;2022-12-29T08:53:43;99559.41;;;10.18;100.00
40940;BME280;26666;50.156;7.700;2022-12-29T08:58:45;99556.81;;;10.36;100.00
40940;BME280;26666;50.156;7.700;2022-12-29T09:03:47;99555.84;;;10.27;100.00
40940;BME280;26666;50.156;7.700;2022-12-29T09:09:08;99577.44;;;10.22;100.00
40940;BME280;26666;50.156;7.700;2022-12-29T09:14:10;99577.53;;;10.31;100.00
40940;BME280;26666;50.156;7.700;2022-12-29T09:19:13;99583.16;;;10.45;100.00
40940;BME280;26666;50.156;7.700;2022-12-29T09:24:14;99597.19;;;10.46;100.00
40940;BME280;26666;50.156;7.700;2022-12-29T09:29:15;99608.44;;;10.48;100.00
40940;BME280;26666;50.156;7.700;2022-12-29T09:34:17;99606.03;;;10.55;100.00
40940;BME280;26666;50.156;7.700;2022-12-29T09:39:18;99610.19;;;10.57;100.00
40940;BME280;26666;50.156;7.700;2022-12-29T09:49:31;99598.63;;;10.58;100.00
40940;BME280;26666;50.156;7.700;2022-12-29T09:54:44;99611.38;;;10.45;100.00
40940;BME280;26666;50.156;7.700;2022-12-29T10:00:11;99604.44;;;10.62;100.00
40940;BME280;26666;50.156;7.700;2022-12-29T10:11:02;99614.66;;;10.93;100.00
40940;BME280;26666;50.156;7.700;2022-12-29T10:21:29;99638.13;;;11.14;100.00
40940;BME280;26666;50.156;7.700;2022-12-29T10:26:40;99637.53;;;11.20;100.00
40940;BME280;26666;50.156;7.700;2022-12-29T10:31:49;99630.66;;;11.09;100.00
40940;BME280;26666;50.156;7.700;2022-12-29T10:37:00;99625.78;;;11.22;100.00
40940;BME280;26666;50.156;7.700;2022-12-29T10:42:26;99636.56;;;11.21;100.00
40940;BME280;26666;50.156;7.700;2022-12-29T10:47:32;99643.19;;;11.25;100.00
40940;BME280;26666;50.156;7.700;2022-12-29T10:52:38;99653.44;;;11.28;100.00
40940;BME280;26666;50.156;7.700;2022-12-29T10:57:44;99655.34;;;11.18;100.00
40940;BME280;26666;50.156;7.700;2022-12-29T11:08:17;99649.47;;;11.06;100.00
40940;BME280;26666;50.156;7.700;2022-12-29T11:13:25;99647.97;;;11.03;100.00
40940;BME280;26666;50.156;7.700;2022-12-29T11:18:39;99663.28;;;11.00;100.00
40940;BME280;26666;50.156;7.700;2022-12-29T11:23:41;99664.66;;;11.04;100.00
40940;BME280;26666;50.156;7.700;2022-12-29T11:44:27;99670.91;;;11.03;100.00
40940;BME280;26666;50.156;7.700;2022-12-29T11:49:28;99681.47;;;11.03;100.00
40940;BME280;26666;50.156;7.700;2022-12-29T11:54:33;99689.94;;;11.07;100.00
40940;BME280;26666;50.156;7.700;2022-12-29T11:59:41;99686.34;;;11.08;100.00
40940;BME280;26666;50.156;7.700;2022-12-29T12:04:43;99679.44;;;10.97;100.00
40940;BME280;26666;50.156;7.700;2022-12-29T12:09:53;99673.47;;;11.13;100.00
40940;BME280;26666;50.156;7.700;2022-12-29T12:15:13;99665.88;;;11.10;100.00
40940;BME280;26666;50.156;7.700;2022-12-29T12:25:57;99666.47;;;11.21;100.00
40940;BME280;26666;50.156;7.700;2022-12-29T12:31:01;99675.59;;;11.27;100.00
40940;BME280;26666;50.156;7.700;2022-12-29T12:41:52;99667.75;;;11.17;97.45
40940;BME280;26666;50.156;7.700;2022-12-29T13:19:08;99660.84;;;11.42;96.01
40940;BME280;26666;50.156;7.700;2022-12-29T13:29:35;99680.34;;;11.23;100.00
40940;BME280;26666;50.156;7.700;2022-12-29T13:40:02;99676.91;;;11.23;100.00
40940;BME280;26666;50.156;7.700;2022-12-29T13:45:09;99676.03;;;11.22;100.00
40940;BME280;26666;50.156;7.700;2022-12-29T13:50:17;99690.94;;;11.23;98.66
40940;BME280;26666;50.156;7.700;2022-12-29T13:55:28;99685.59;;;11.15;100.00
40940;BME280;26666;50.156;7.700;2022-12-29T14:00:43;99686.56;;;11.14;96.14
40940;BME280;26666;50.156;7.700;2022-12-29T14:06:14;99689.19;;;11.14;100.00
40940;BME280;26666;50.156;7.700;2022-12-29T14:11:17;99698.28;;;11.12;100.00
40940;BME280;26666;50.156;7.700;2022-12-29T14:16:30;99707.41;;;10.99;100.00
40940;BME280;26666;50.156;7.700;2022-12-29T14:21:33;99709.59;;;10.86;100.00
40940;BME280;26666;50.156;7.700;2022-12-29T14:26:35;99705.19;;;10.95;100.00
40940;BME280;26666;50.156;7.700;2022-12-29T14:31:36;99704.97;;;10.88;100.00
40940;BME280;26666;50.156;7.700;2022-12-29T14:36:57;99704.63;;;10.73;100.00
40940;BME280;26666;50.156;7.700;2022-12-29T14:42:21;99717.75;;;10.65;100.00
40940;BME280;26666;50.156;7.700;2022-12-29T14:47:27;99730.78;;;10.76;100.00
40940;BME280;26666;50.156;7.700;2022-12-29T14:52:33;99735.16;;;10.85;99.62
40940;BME280;26666;50.156;7.700;2022-12-29T14:57:57;99753.16;;;10.82;96.58
40940;BME280;26666;50.156;7.700;2022-12-29T15:08:24;99749.56;;;10.45;98.27
40940;BME280;26666;50.156;7.700;2022-12-29T15:13:37;99758.41;;;10.54;99.74
40940;BME280;26666;50.156;7.700;2022-12-29T15:18:39;99749.97;;;10.41;100.00
40940;BME280;26666;50.156;7.700;2022-12-29T15:23:42;99756.13;;;10.22;100.00
40940;BME280;26666;50.156;7.700;2022-12-29T15:28:45;99757.44;;;9.98;100.00
40940;BME280;26666;50.156;7.700;2022-12-29T15:33:50;99759.66;;;10.03;100.00
40940;BME280;26666;50.156;7.700;2022-12-29T15:38:53;99772.31;;;9.90;100.00
40940;BME280;26666;50.156;7.700;2022-12-29T15:44:14;99761.66;;;9.72;100.00
40940;BME280;26666;50.156;7.700;2022-12-29T15:49:20;99761.91;;;9.68;100.00
40940;BME280;26666;50.156;7.700;2022-12-29T15:54:22;99775.78;;;9.51;100.00
40940;BME280;26666;50.156;7.700;2022-12-29T15:59:27;99780.69;;;9.46;100.00
40940;BME280;26666;50.156;7.700;2022-12-29T16:04:30;99799.97;;;9.56;100.00
40940;BME280;26666;50.156;7.700;2022-12-29T16:09:55;99809.94;;;9.43;100.00
40940;BME280;26666;50.156;7.700;2022-12-29T16:15:00;99809.09;;;9.33;100.00
40940;BME280;26666;50.156;7.700;2022-12-29T16:20:06;99818.63;;;9.14;100.00
40940;BME280;26666;50.156;7.700;2022-12-29T16:30:28;99832.03;;;8.92;100.00
40940;BME280;26666;50.156;7.700;2022-12-29T16:41:02;99845.50;;;8.98;100.00
40940;BME280;26666;50.156;7.700;2022-12-29T16:46:21;99840.94;;;9.10;100.00
40940;BME280;26666;50.156;7.700;2022-12-29T16:51:35;99849.63;;;8.91;100.00
40940;BME280;26666;50.156;7.700;2022-12-29T16:56:43;99850.31;;;8.83;100.00
40940;BME280;26666;50.156;7.700;2022-12-29T17:01:46;99837.34;;;8.71;100.00
40940;BME280;26666;50.156;7.700;2022-12-29T17:06:47;99847.13;;;8.59;100.00
40940;BME280;26666;50.156;7.700;2022-12-29T17:11:51;99852.13;;;8.62;100.00
40940;BME280;26666;50.156;7.700;2022-12-29T17:17:04;99842.66;;;8.49;100.00
40940;BME280;26666;50.156;7.700;2022-12-29T17:22:13;99851.19;;;8.42;100.00
40940;BME280;26666;50.156;7.700;2022-12-29T17:32:36;99845.59;;;8.35;100.00
40940;BME280;26666;50.156;7.700;2022-12-29T17:37:37;99851.81;;;8.34;100.00
40940;BME280;26666;50.156;7.700;2022-12-29T17:42:45;99846.53;;;8.34;100.00
40940;BME280;26666;50.156;7.700;2022-12-29T17:47:47;99845.84;;;8.32;100.00
40940;BME280;26666;50.156;7.700;2022-12-29T17:52:52;99852.31;;;8.28;100.00
40940;BME280;26666;50.156;7.700;2022-12-29T17:58:00;99859.91;;;8.21;100.00
40940;BME280;26666;50.156;7.700;2022-12-29T18:03:02;99857.34;;;8.10;100.00
40940;BME280;26666;50.156;7.700;2022-12-29T18:08:04;99867.53;;;8.03;100.00
40940;BME280;26666;50.156;7.700;2022-12-29T18:13:05;99874.69;;;8.01;100.00
40940;BME280;26666;50.156;7.700;2022-12-29T18:18:12;99872.97;;;7.90;100.00
40940;BME280;26666;50.156;7.700;2022-12-29T18:23:19;99897.00;;;7.86;100.00
40940;BME280;26666;50.156;7.700;2022-12-29T18:28:21;99900.13;;;7.80;100.00
40940;BME280;26666;50.156;7.700;2022-12-29T18:33:23;99899.06;;;7.82;100.00
40940;BME280;26666;50.156;7.700;2022-12-29T18:38:27;99908.69;;;7.93;100.00
40940;BME280;26666;50.156;7.700;2022-12-29T18:43:29;99914.75;;;8.05;100.00
40940;BME280;26666;50.156;7.700;2022-12-29T18:48:31;99916.28;;;7.86;100.00
40940;BME280;26666;50.156;7.700;2022-12-29T18:53:32;99916.50;;;7.83;100.00
40940;BME280;26666;50.156;7.700;2022-12-29T18:58:35;99926.13;;;7.73;100.00
40940;BME280;26666;50.156;7.700;2022-12-29T19:03:36;99927.75;;;7.74;100.00
40940;BME280;26666;50.156;7.700;2022-12-29T19:08:38;99922.88;;;7.81;100.00
40940;BME280;26666;50.156;7.700;2022-12-29T19:13:39;99927.75;;;7.85;100.00
40940;BME280;26666;50.156;7.700;2022-12-29T19:18:41;99940.44;;;7.80;100.00
40940;BME280;26666;50.156;7.700;2022-12-29T19:23:46;99945.09;;;7.88;100.00
40940;BME280;26666;50.156;7.700;2022-12-29T19:28:47;99928.84;;;7.83;100.00
40940;BME280;26666;50.156;7.700;2022-12-29T19:33:49;99939.25;;;7.84;100.00
40940;BME280;26666;50.156;7.700;2022-12-29T19:38:50;99933.38;;;7.81;100.00
40940;BME280;26666;50.156;7.700;2022-12-29T19:43:52;99937.44;;;7.85;100.00
40940;BME280;26666;50.156;7.700;2022-12-29T19:48:54;99937.94;;;7.79;100.00
40940;BME280;26666;50.156;7.700;2022-12-29T19:53:55;99938.16;;;7.76;100.00
40940;BME280;26666;50.156;7.700;2022-12-29T19:58:57;99946.03;;;7.87;100.00
40940;BME280;26666;50.156;7.700;2022-12-29T20:03:59;99947.16;;;7.62;100.00
40940;BME280;26666;50.156;7.700;2022-12-29T20:09:01;99967.31;;;7.84;100.00
40940;BME280;26666;50.156;7.700;2022-12-29T20:14:03;99957.16;;;7.79;100.00
40940;BME280;26666;50.156;7.700;2022-12-29T20:19:04;99957.75;;;7.94;100.00
40940;BME280;26666;50.156;7.700;2022-12-29T20:24:06;99963.84;;;7.83;100.00
40940;BME280;26666;50.156;7.700;2022-12-29T20:29:08;99964.34;;;7.88;100.00
40940;BME280;26666;50.156;7.700;2022-12-29T20:34:09;99962.28;;;7.92;100.00
40940;BME280;26666;50.156;7.700;2022-12-29T20:39:17;99974.75;;;7.79;100.00
40940;BME280;26666;50.156;7.700;2022-12-29T20:44:19;99979.03;;;7.91;100.00
40940;BME280;26666;50.156;7.700;2022-12-29T20:49:20;99996.16;;;7.74;100.00
40940;BME280;26666;50.156;7.700;2022-12-29T20:54:24;99995.31;;;7.62;100.00
40940;BME280;26666;50.156;7.700;2022-12-29T20:59:34;100010.56;;;8.02;100.00
40940;BME280;26666;50.156;7.700;2022-12-29T21:04:35;100014.75;;;7.94;100.00
40940;BME280;26666;50.156;7.700;2022-12-29T21:09:57;100021.59;;;7.85;100.00
40940;BME280;26666;50.156;7.700;2022-12-29T21:14:59;100025.88;;;7.97;100.00
40940;BME280;26666;50.156;7.700;2022-12-29T21:20:01;100036.00;;;8.13;100.00
40940;BME280;26666;50.156;7.700;2022-12-29T21:25:03;100038.63;;;8.24;100.00
40940;BME280;26666;50.156;7.700;2022-12-29T21:30:05;100042.66;;;8.28;100.00
40940;BME280;26666;50.156;7.700;2022-12-29T21:35:08;100037.78;;;8.24;100.00
40940;BME280;26666;50.156;7.700;2022-12-29T21:40:10;100049.53;;;8.08;100.00
40940;BME280;26666;50.156;7.700;2022-12-29T21:45:11;100052.56;;;8.04;100.00
40940;BME280;26666;50.156;7.700;2022-12-29T21:50:20;100051.59;;;8.05;100.00
40940;BME280;26666;50.156;7.700;2022-12-29T21:55:22;100064.91;;;7.92;100.00
40940;BME280;26666;50.156;7.700;2022-12-29T22:00:23;100067.53;;;7.81;100.00
40940;BME280;26666;50.156;7.700;2022-12-29T22:05:25;100079.25;;;7.77;100.00
40940;BME280;26666;50.156;7.700;2022-12-29T22:10:26;100082.94;;;7.85;100.00
40940;BME280;26666;50.156;7.700;2022-12-29T22:15:31;100089.28;;;7.83;100.00
40940;BME280;26666;50.156;7.700;2022-12-29T22:20:34;100090.72;;;7.87;100.00
40940;BME280;26666;50.156;7.700;2022-12-29T22:25:38;100091.31;;;7.90;100.00
40940;BME280;26666;50.156;7.700;2022-12-29T22:30:39;100111.03;;;7.96;100.00
40940;BME280;26666;50.156;7.700;2022-12-29T22:35:41;100102.66;;;7.80;100.00
40940;BME280;26666;50.156;7.700;2022-12-29T22:40:42;100103.16;;;7.74;100.00
40940;BME280;26666;50.156;7.700;2022-12-29T22:45:44;100107.31;;;7.76;100.00
40940;BME280;26666;50.156;7.700;2022-12-29T22:50:45;100124.31;;;7.61;100.00
40940;BME280;26666;50.156;7.700;2022-12-29T22:55:47;100125.13;;;7.61;100.00
40940;BME280;26666;50.156;7.700;2022-12-29T23:00:48;100117.00;;;7.64;100.00
40940;BME280;26666;50.156;7.700;2022-12-29T23:05:57;100107.94;;;7.91;100.00
40940;BME280;26666;50.156;7.700;2022-12-29T23:11:00;100128.84;;;7.70;100.00
40940;BME280;26666;50.156;7.700;2022-12-29T23:16:01;100127.88;;;7.60;100.00
40940;BME280;26666;50.156;7.700;2022-12-29T23:21:04;100113.31;;;7.67;100.00
40940;BME280;26666;50.156;7.700;2022-12-29T23:26:06;100120.22;;;7.68;100.00
40940;BME280;26666;50.156;7.700;2022-12-29T23:31:08;100136.56;;;7.49;100.00
40940;BME280;26666;50.156;7.700;2022-12-29T23:36:09;100146.28;;;7.60;100.00
40940;BME280;26666;50.156;7.700;2022-12-29T23:41:11;100148.88;;;7.48;100.00
40940;BME280;26666;50.156;7.700;2022-12-29T23:46:19;100147.44;;;7.44;100.00
40940;BME280;26666;50.156;7.700;2022-12-29T23:51:21;100158.56;;;7.48;100.00
40940;BME280;26666;50.156;7.700;2022-12-29T23:56:23;100158.78;;;7.34;100.00
